Time;durP1;ratioP1;P1;durP2;ratioP2;P2;SDS_P1;SDS_P2;PMS_P1;PMS_P2;Temp;Humidity;BMP_temperature;BMP_pressure;BME280_temperature;BME280_humidity;BME280_pressure;Samples;Min_cycle;Max_cycle;Signal;HPM_P1;HPM_P2
2023/12/06 00:01:56;;;;;;;9.88;3.63;;;3.60;99.90;;;2.84;100.00;101262.91;4154203;28;20032;-80
2023/12/06 00:03:57;;;;;;;9.15;3.85;;;3.60;99.90;;;2.86;100.00;101272.31;4170412;28;20068;-81
2023/12/06 00:05:57;;;;;;;7.00;3.50;;;3.60;99.90;;;2.83;100.00;101271.66;4157073;28;20038;-80
2023/12/06 00:07:58;;;;;;;10.43;4.32;;;3.70;99.90;;;2.85;100.00;101283.66;4152907;28;20432;-81
2023/12/06 00:10:00;;;;;;;13.48;3.83;;;3.70;99.90;;;2.81;100.00;101269.13;4169168;28;20586;-81
2023/12/06 00:12:01;;;;;;;9.48;3.58;;;3.70;99.90;;;2.81;100.00;101271.72;4153008;28;20025;-80
2023/12/06 00:14:02;;;;;;;10.27;4.15;;;3.60;99.90;;;2.84;100.00;101271.53;4154093;28;20075;-80
2023/12/06 00:16:03;;;;;;;8.65;2.97;;;3.60;99.90;;;2.85;100.00;101278.44;4152647;28;20061;-81
2023/12/06 00:18:04;;;;;;;10.50;4.10;;;3.60;99.90;;;2.85;100.00;101275.00;4154009;28;20406;-81
2023/12/06 00:20:06;;;;;;;10.02;3.70;;;3.60;99.90;;;2.82;100.00;101265.59;4152630;28;20029;-81
2023/12/06 00:22:07;;;;;;;10.68;3.55;;;3.60;99.90;;;2.77;100.00;101273.72;4153818;28;20038;-80
2023/12/06 00:24:08;;;;;;;8.00;3.03;;;3.60;99.90;;;2.75;100.00;101274.69;4153601;28;20030;-80
2023/12/06 00:26:09;;;;;;;7.32;3.28;;;3.60;99.90;;;2.72;100.00;101280.94;4152752;28;20494;-81
2023/12/06 00:28:09;;;;;;;8.23;3.97;;;3.60;99.90;;;2.73;100.00;101281.78;4152715;28;20020;-81
2023/12/06 00:30:11;;;;;;;9.20;3.45;;;3.60;99.90;;;2.68;100.00;101273.41;4152931;28;20034;-80
2023/12/06 00:32:11;;;;;;;6.85;3.15;;;3.50;99.90;;;2.71;100.00;101263.66;4152455;28;20026;-81
2023/12/06 00:34:12;;;;;;;7.60;3.42;;;3.50;99.90;;;2.82;100.00;101269.97;4185788;28;20080;-80
2023/12/06 00:36:13;;;;;;;12.73;4.13;;;3.60;99.90;;;2.85;100.00;101268.00;4152762;28;20037;-81
2023/12/06 00:38:17;;;;;;;8.02;3.47;;;3.60;99.90;;;2.82;100.00;101263.00;4153710;28;20401;-81
2023/12/06 00:40:18;;;;;;;10.35;3.33;;;3.70;99.90;;;2.87;100.00;101268.75;4153131;28;20026;-80
2023/12/06 00:42:19;;;;;;;8.52;3.65;;;3.70;99.90;;;2.87;100.00;101260.94;4153644;28;20034;-80
2023/12/06 00:44:20;;;;;;;13.77;3.95;;;3.70;99.90;;;2.87;100.00;101267.94;4153627;28;20025;-81
2023/12/06 00:46:20;;;;;;;12.98;3.80;;;3.70;99.90;;;2.94;100.00;101275.25;4168697;28;20034;-80
2023/12/06 00:48:21;;;;;;;11.27;4.30;;;3.70;99.90;;;2.97;100.00;101280.28;4152334;28;20425;-80
2023/12/06 00:50:22;;;;;;;12.10;3.70;;;3.80;99.90;;;3.09;100.00;101283.91;4168705;28;20060;-81
2023/12/06 00:52:23;;;;;;;9.73;4.10;;;3.90;99.90;;;3.20;100.00;101279.69;4153925;28;20409;-80
2023/12/06 00:54:24;;;;;;;8.82;4.05;;;4.00;99.90;;;3.38;100.00;101277.69;4153261;28;20036;-81
2023/12/06 00:56:24;;;;;;;8.13;3.92;;;4.20;99.90;;;3.53;100.00;101276.72;4152050;28;20018;-81
2023/12/06 00:58:25;;;;;;;9.35;3.67;;;4.30;99.90;;;3.66;100.00;101284.59;4153487;28;20022;-81
2023/12/06 01:00:27;;;;;;;13.63;5.50;;;4.40;99.90;;;3.75;100.00;101284.00;4152070;28;20026;-81
2023/12/06 01:02:28;;;;;;;14.95;4.07;;;4.50;99.90;;;3.85;100.00;101285.09;4184945;28;20037;-81
2023/12/06 01:04:28;;;;;;;10.15;3.63;;;4.60;99.90;;;3.91;100.00;101285.50;4152052;28;20029;-81
2023/12/06 01:06:30;;;;;;;9.90;3.53;;;4.80;99.90;;;4.01;100.00;101287.53;4152158;28;20033;-81
2023/12/06 01:08:31;;;;;;;7.65;3.92;;;4.80;99.90;;;4.06;100.00;101282.88;4152178;28;20543;-80
2023/12/06 01:10:33;;;;;;;6.07;3.38;;;4.90;99.90;;;4.15;100.00;101287.47;4153246;28;20030;-81
2023/12/06 01:12:35;;;;;;;12.63;4.18;;;5.00;99.90;;;4.17;100.00;101276.00;4152007;28;20054;-80
2023/12/06 01:14:36;;;;;;;9.43;3.72;;;5.00;99.90;;;4.22;100.00;101273.91;4151972;28;20109;-81
2023/12/06 01:16:37;;;;;;;9.88;3.85;;;5.10;99.90;;;4.30;100.00;101274.22;4151831;28;20081;-82
2023/12/06 01:18:38;;;;;;;9.55;4.35;;;5.10;99.90;;;4.35;100.00;101284.38;4159184;28;20428;-81
2023/12/06 01:20:39;;;;;;;11.00;4.72;;;5.20;99.90;;;4.36;100.00;101276.41;4154998;28;20096;-81
2023/12/06 01:22:39;;;;;;;7.22;3.15;;;5.20;99.90;;;4.34;100.00;101260.00;4168164;28;20029;-81
2023/12/06 01:24:40;;;;;;;10.80;3.47;;;5.20;99.90;;;4.42;100.00;101273.38;4151731;28;20022;-81
2023/12/06 01:26:41;;;;;;;10.00;2.92;;;5.30;99.90;;;4.41;100.00;101271.72;4184582;28;20025;-81
2023/12/06 01:28:42;;;;;;;10.32;2.75;;;5.30;99.90;;;4.40;100.00;101262.22;4168074;28;20026;-81
2023/12/06 01:30:43;;;;;;;6.10;3.28;;;5.30;99.90;;;4.41;100.00;101258.66;4167925;28;20021;-81
2023/12/06 01:32:43;;;;;;;6.82;3.20;;;5.30;99.90;;;4.37;100.00;101267.66;4152911;28;20032;-81
2023/12/06 01:34:44;;;;;;;7.82;3.55;;;5.30;99.90;;;4.43;100.00;101272.47;4151812;28;20513;-81
2023/12/06 01:36:45;;;;;;;13.43;4.18;;;5.30;99.90;;;4.46;100.00;101269.63;4152801;28;20022;-81
2023/12/06 01:38:46;;;;;;;13.88;3.53;;;5.30;99.90;;;4.48;100.00;101279.97;4152531;28;20493;-81
2023/12/06 01:40:47;;;;;;;9.77;2.92;;;5.30;99.90;;;4.53;100.00;101272.66;4154502;28;20033;-81
2023/12/06 01:42:48;;;;;;;6.30;2.72;;;5.40;99.90;;;4.50;100.00;101261.59;4160857;28;20041;-81
2023/12/06 01:44:48;;;;;;;7.97;2.63;;;5.40;99.90;;;4.50;100.00;101272.03;4151543;28;20030;-81
2023/12/06 01:46:49;;;;;;;7.18;3.75;;;5.30;99.90;;;4.50;100.00;101266.81;4152684;28;20025;-81
2023/12/06 01:48:51;;;;;;;10.65;3.70;;;5.30;99.90;;;4.44;100.00;101261.06;4184349;28;20082;-81
2023/12/06 01:50:53;;;;;;;5.95;3.05;;;5.30;99.90;;;4.52;100.00;101267.53;4187657;28;20035;-81
2023/12/06 01:52:59;;;;;;;7.68;3.28;;;5.30;99.90;;;4.51;100.00;101263.28;4156186;28;20092;-81
2023/12/06 01:55:00;;;;;;;7.93;3.13;;;5.40;99.90;;;4.44;100.00;101261.06;4152317;28;20026;-81
2023/12/06 01:57:01;;;;;;;8.43;3.17;;;5.30;99.90;;;4.48;100.00;101272.13;4153923;28;20022;-81
2023/12/06 01:59:02;;;;;;;7.80;3.10;;;5.40;99.90;;;4.44;100.00;101271.53;4184269;28;20040;-81
2023/12/06 02:01:05;;;;;;;5.85;3.67;;;5.30;99.90;;;4.37;100.00;101272.88;4188856;28;20108;-81
2023/12/06 02:03:06;;;;;;;4.07;2.35;;;5.30;99.90;;;4.32;100.00;101285.41;4153317;28;20444;-81
2023/12/06 02:05:08;;;;;;;4.53;2.40;;;5.20;99.90;;;4.25;100.00;101283.28;4151390;28;20018;-81
2023/12/06 02:07:10;;;;;;;3.97;2.42;;;5.10;99.90;;;4.24;100.00;101292.09;4151322;28;20053;-81
2023/12/06 02:09:12;;;;;;;4.20;2.20;;;5.10;99.90;;;4.20;100.00;101296.66;4153496;28;20022;-81
2023/12/06 02:11:13;;;;;;;4.63;2.65;;;5.00;99.90;;;4.15;100.00;101290.91;4155132;28;20030;-81
2023/12/06 02:13:14;;;;;;;7.25;2.88;;;5.00;99.90;;;4.13;100.00;101294.53;4152483;28;20029;-81
2023/12/06 02:15:15;;;;;;;8.10;3.42;;;5.00;99.90;;;4.11;100.00;101302.50;4151051;28;20037;-81
2023/12/06 02:17:18;;;;;;;5.85;2.90;;;5.00;99.90;;;4.07;100.00;101295.78;4151528;28;20496;-80
2023/12/06 02:19:26;;;;;;;6.45;3.88;;;4.90;99.90;;;4.07;100.00;101289.72;4150699;28;20061;-80
2023/12/06 02:21:28;;;;;;;9.07;3.95;;;4.90;99.90;;;4.05;100.00;101297.69;4152865;28;20030;-80
2023/12/06 02:23:37;;;;;;;8.43;4.43;;;4.80;99.90;;;4.02;100.00;101291.81;4152096;28;20034;-80
2023/12/06 02:25:38;;;;;;;5.82;3.58;;;4.80;99.90;;;4.00;100.00;101296.31;4167340;28;20021;-81
2023/12/06 02:27:44;;;;;;;7.70;4.35;;;4.80;99.90;;;4.05;100.00;101305.50;4151024;28;20029;-81
2023/12/06 02:29:44;;;;;;;8.07;4.35;;;4.90;99.90;;;4.09;100.00;101304.34;4167477;28;20040;-80
2023/12/06 02:31:45;;;;;;;9.13;4.65;;;4.90;99.90;;;4.15;100.00;101313.59;4177370;28;20021;-81
2023/12/06 02:33:50;;;;;;;8.60;4.15;;;5.00;99.90;;;4.20;100.00;101308.88;4154200;28;20029;-81
2023/12/06 02:35:57;;;;;;;8.95;3.95;;;5.00;99.90;;;4.28;100.00;101309.19;4151218;28;20425;-81
2023/12/06 02:38:00;;;;;;;6.50;4.38;;;5.10;99.90;;;4.30;100.00;101304.75;4167107;28;20037;-81
2023/12/06 02:40:04;;;;;;;8.93;4.63;;;5.10;99.90;;;4.31;100.00;101309.84;4150814;28;20033;-80
2023/12/06 02:42:05;;;;;;;5.05;3.85;;;5.20;99.90;;;4.33;100.00;101312.38;4161248;28;20030;-80
2023/12/06 02:44:06;;;;;;;6.38;4.35;;;5.20;99.90;;;4.30;100.00;101309.97;4151073;28;20037;-81
2023/12/06 02:46:07;;;;;;;7.30;5.63;;;5.20;99.90;;;4.29;100.00;101309.13;4156601;28;20635;-81
2023/12/06 02:48:09;;;;;;;9.82;6.43;;;5.10;99.90;;;4.25;100.00;101310.25;4155596;28;20033;-81
2023/12/06 02:50:09;;;;;;;10.52;6.15;;;5.10;99.90;;;4.27;100.00;101303.13;4150885;28;20452;-81
2023/12/06 02:52:12;;;;;;;8.93;5.88;;;5.10;99.90;;;4.23;100.00;101301.69;4158358;28;20101;-81
2023/12/06 02:54:13;;;;;;;6.80;4.60;;;5.10;99.90;;;4.28;100.00;101310.03;4150800;28;20466;-80
2023/12/06 02:56:14;;;;;;;8.88;4.68;;;5.10;99.90;;;4.32;100.00;101310.69;4152066;28;20069;-81
2023/12/06 02:58:15;;;;;;;11.63;5.93;;;5.10;99.90;;;4.30;100.00;101310.75;4150761;28;20030;-82
2023/12/06 03:00:16;;;;;;;8.95;5.75;;;5.10;99.90;;;4.30;100.00;101305.53;4151013;28;20026;-81
2023/12/06 03:02:17;;;;;;;10.95;5.78;;;5.10;99.90;;;4.31;100.00;101299.41;4157177;28;20034;-81
2023/12/06 03:04:18;;;;;;;14.63;6.20;;;5.10;99.90;;;4.31;100.00;101293.34;4150849;28;20033;-81
2023/12/06 03:06:19;;;;;;;9.65;5.35;;;5.10;99.90;;;4.33;100.00;101286.25;4151904;28;20036;-81
2023/12/06 03:08:20;;;;;;;11.75;4.65;;;5.20;99.90;;;4.37;100.00;101293.75;4151058;28;20030;-82
2023/12/06 03:10:20;;;;;;;11.52;4.85;;;5.20;99.90;;;4.40;100.00;101280.50;4150779;28;20024;-81
2023/12/06 03:12:21;;;;;;;9.25;4.93;;;5.20;99.90;;;4.42;100.00;101280.41;4154587;28;20044;-81
2023/12/06 03:14:22;;;;;;;12.25;4.65;;;5.30;99.90;;;4.48;100.00;101279.97;4150692;28;20022;-81
2023/12/06 03:16:23;;;;;;;10.48;4.85;;;5.30;99.90;;;4.47;100.00;101275.69;4151817;28;20065;-81
2023/12/06 03:18:24;;;;;;;9.40;4.63;;;5.30;99.90;;;4.48;100.00;101280.81;4150635;28;20026;-81
2023/12/06 03:20:24;;;;;;;11.98;7.28;;;5.40;99.90;;;4.42;100.00;101278.59;4151999;28;20032;-81
2023/12/06 03:22:26;;;;;;;14.43;6.50;;;5.30;99.90;;;4.38;100.00;101282.38;4151864;28;20026;-81
2023/12/06 03:24:26;;;;;;;9.32;6.32;;;5.30;99.90;;;4.34;100.00;101274.84;4150545;28;20026;-81
2023/12/06 03:26:27;;;;;;;14.00;7.00;;;5.20;99.90;;;4.31;100.00;101272.44;4151833;28;20497;-81
2023/12/06 03:28:28;;;;;;;14.20;7.20;;;5.20;99.90;;;4.31;100.00;101272.44;4150699;28;20022;-81
2023/12/06 03:30:29;;;;;;;7.90;4.13;;;5.20;99.90;;;4.27;100.00;101276.22;4151708;28;20060;-81
2023/12/06 03:32:30;;;;;;;10.27;4.63;;;5.10;99.90;;;4.29;100.00;101287.38;4164436;28;20509;-81
2023/12/06 03:34:30;;;;;;;13.52;6.07;;;5.10;99.90;;;4.22;100.00;101286.94;4154810;28;20029;-81
2023/12/06 03:36:31;;;;;;;9.88;5.68;;;5.10;99.90;;;4.21;100.00;101285.28;4154649;28;20378;-82
2023/12/06 03:38:32;;;;;;;10.27;5.95;;;5.10;99.90;;;4.18;100.00;101277.63;4153176;28;20109;-81
2023/12/06 03:40:33;;;;;;;10.23;6.03;;;5.00;99.90;;;4.15;100.00;101283.06;4153603;28;20029;-81
2023/12/06 03:42:34;;;;;;;9.98;5.55;;;5.00;99.90;;;4.11;100.00;101275.56;4163543;28;20044;-81
2023/12/06 03:44:35;;;;;;;11.05;5.97;;;5.00;99.90;;;4.09;100.00;101275.63;4169708;28;20424;-81
2023/12/06 03:46:36;;;;;;;12.30;5.55;;;4.90;99.90;;;4.03;100.00;101273.47;4153365;28;20501;-81
2023/12/06 03:48:37;;;;;;;9.57;4.70;;;4.90;99.90;;;3.96;100.00;101271.34;4154524;28;20084;-81
2023/12/06 03:50:38;;;;;;;12.48;5.30;;;4.80;99.90;;;3.87;100.00;101267.56;4154587;28;20374;-81
2023/12/06 03:52:39;;;;;;;11.35;5.40;;;4.70;99.90;;;3.73;100.00;101257.19;4160464;28;20029;-81
2023/12/06 03:54:39;;;;;;;10.93;5.20;;;4.60;99.90;;;3.63;100.00;101259.56;4163750;28;20030;-81
2023/12/06 03:56:41;;;;;;;8.23;4.72;;;4.50;99.90;;;3.52;100.00;101263.78;4154919;28;20037;-81
2023/12/06 03:58:41;;;;;;;10.25;4.65;;;4.40;99.90;;;3.40;100.00;101267.19;4154480;28;20030;-81
2023/12/06 04:00:42;;;;;;;12.20;5.35;;;4.30;99.90;;;3.25;100.00;101253.34;4185934;28;20071;-81
2023/12/06 04:02:43;;;;;;;12.88;5.38;;;4.20;99.90;;;3.16;100.00;101246.09;4159827;28;20038;-81
2023/12/06 04:04:44;;;;;;;10.55;5.43;;;4.00;99.90;;;3.01;100.00;101234.88;4154218;28;20045;-81
2023/12/06 04:06:45;;;;;;;9.90;5.18;;;3.90;99.90;;;2.91;100.00;101238.97;4153293;28;20117;-81
2023/12/06 04:08:46;;;;;;;13.68;4.82;;;3.80;99.90;;;2.79;100.00;101231.91;4154095;28;20034;-80
2023/12/06 04:10:47;;;;;;;9.98;4.95;;;3.70;99.90;;;2.70;100.00;101242.91;4153495;28;20030;-81
2023/12/06 04:12:48;;;;;;;8.68;4.65;;;3.60;99.90;;;2.63;100.00;101252.00;4154372;28;20034;-81
2023/12/06 04:14:48;;;;;;;8.80;5.20;;;3.60;99.90;;;2.56;100.00;101255.94;4186062;28;20087;-81
2023/12/06 04:16:49;;;;;;;9.27;5.38;;;3.50;99.90;;;2.44;100.00;101252.28;4153986;28;20046;-81
2023/12/06 04:18:50;;;;;;;11.82;5.50;;;3.40;99.90;;;2.41;100.00;101243.81;4153879;28;20026;-81
2023/12/06 04:20:52;;;;;;;15.15;6.00;;;3.30;99.90;;;2.30;100.00;101239.25;4154615;28;20056;-81
2023/12/06 04:22:53;;;;;;;14.55;5.82;;;3.20;99.90;;;2.27;100.00;101249.03;4148268;28;20038;-80
2023/12/06 04:24:53;;;;;;;17.00;6.28;;;3.20;99.90;;;2.17;100.00;101244.38;4145350;28;20026;-81
2023/12/06 04:26:54;;;;;;;15.40;7.35;;;3.10;99.90;;;2.10;100.00;101243.03;4152747;28;20022;-80
2023/12/06 04:28:55;;;;;;;16.55;5.70;;;3.00;99.90;;;2.09;100.00;101253.53;4153830;28;20018;-81
2023/12/06 04:30:56;;;;;;;19.65;8.05;;;3.00;99.90;;;2.03;100.00;101252.13;4155334;28;20030;-80
2023/12/06 04:32:57;;;;;;;22.45;8.43;;;3.00;99.90;;;1.98;100.00;101266.31;4162586;28;20396;-81
2023/12/06 04:34:58;;;;;;;15.75;7.22;;;2.90;99.90;;;1.91;100.00;101265.03;4153859;28;20489;-81
2023/12/06 04:36:59;;;;;;;21.92;7.03;;;2.90;99.90;;;1.86;100.00;101267.88;4152386;28;20029;-80
2023/12/06 04:39:00;;;;;;;16.83;6.38;;;2.80;99.90;;;1.81;100.00;101267.31;4153641;28;20508;-80
2023/12/06 04:41:00;;;;;;;13.88;7.95;;;2.70;99.90;;;1.78;100.00;101275.28;4187247;28;20021;-80
2023/12/06 04:43:01;;;;;;;18.38;9.23;;;2.70;99.90;;;1.74;100.00;101268.56;4158695;28;20048;-81
2023/12/06 04:45:03;;;;;;;21.13;9.38;;;2.70;99.90;;;1.68;100.00;101266.31;4152541;28;20025;-81
2023/12/06 04:47:04;;;;;;;26.85;12.25;;;2.60;99.90;;;1.71;100.00;101278.28;4152570;28;20535;-81
2023/12/06 04:49:05;;;;;;;32.55;12.75;;;2.60;99.90;;;1.61;100.00;101273.59;4155802;28;20022;-80
2023/12/06 04:51:05;;;;;;;32.20;12.82;;;2.50;99.90;;;1.60;100.00;101266.75;4154732;28;20052;-80
2023/12/06 04:53:06;;;;;;;33.85;13.48;;;2.50;99.90;;;1.60;100.00;101268.50;4156559;28;20056;-81
2023/12/06 04:55:07;;;;;;;21.38;10.30;;;2.50;99.90;;;1.51;100.00;101256.88;4152130;28;20042;-81
2023/12/06 04:57:08;;;;;;;16.58;9.07;;;2.50;99.90;;;1.52;100.00;101278.50;4185135;28;20028;-82
2023/12/06 04:59:09;;;;;;;17.15;8.65;;;2.40;99.90;;;1.46;100.00;101268.44;4152331;28;20029;-81
2023/12/06 05:01:10;;;;;;;19.60;9.45;;;2.40;99.90;;;1.40;100.00;101269.63;4153021;28;20033;-81
2023/12/06 05:03:11;;;;;;;20.85;9.38;;;2.40;99.90;;;1.41;100.00;101275.66;4151956;28;20481;-81
2023/12/06 05:05:12;;;;;;;16.85;8.70;;;2.30;99.90;;;1.38;100.00;101270.63;4154208;28;20076;-81
2023/12/06 05:07:13;;;;;;;17.38;7.78;;;2.30;99.90;;;1.34;100.00;101266.53;4184857;28;20058;-81
2023/12/06 05:09:14;;;;;;;17.35;7.72;;;2.30;99.90;;;1.31;100.00;101266.69;4151905;28;20037;-81
2023/12/06 05:11:15;;;;;;;11.90;6.97;;;2.20;99.90;;;1.30;100.00;101278.84;4151963;28;20096;-81
2023/12/06 05:13:16;;;;;;;22.20;9.00;;;2.20;99.90;;;1.18;100.00;101271.72;4152112;28;20076;-81
2023/12/06 05:15:16;;;;;;;22.23;8.48;;;2.20;99.90;;;1.16;100.00;101281.38;4153022;28;20026;-80
2023/12/06 05:17:17;;;;;;;18.80;9.50;;;2.10;99.90;;;1.10;100.00;101277.34;4151909;28;20039;-81
2023/12/06 05:19:18;;;;;;;18.10;8.57;;;2.10;99.90;;;1.08;100.00;101278.31;4152937;28;20453;-81
2023/12/06 05:21:19;;;;;;;15.00;8.20;;;2.00;99.90;;;1.02;100.00;101265.66;4153214;28;20040;-81
2023/12/06 05:23:20;;;;;;;14.02;6.93;;;1.90;99.90;;;1.02;100.00;101279.50;4135342;28;20596;-81
2023/12/06 05:25:21;;;;;;;15.95;7.43;;;1.90;99.90;;;0.99;100.00;101278.81;4152977;28;20481;-81
2023/12/06 05:27:21;;;;;;;15.13;7.70;;;2.00;99.90;;;0.97;100.00;101289.31;4167969;28;20039;-81
2023/12/06 05:29:22;;;;;;;18.90;9.05;;;1.90;99.90;;;0.91;100.00;101289.63;4153266;28;20022;-81
2023/12/06 05:31:23;;;;;;;20.00;9.73;;;1.90;99.90;;;0.87;100.00;101295.03;4151827;28;20033;-81
2023/12/06 05:33:24;;;;;;;15.23;8.18;;;1.80;99.90;;;0.84;100.00;101293.47;4152861;28;20031;-81
2023/12/06 05:35:24;;;;;;;16.73;8.10;;;1.80;99.90;;;0.82;100.00;101297.91;4151598;28;20087;-81
2023/12/06 05:37:25;;;;;;;22.48;9.95;;;1.80;99.90;;;0.76;100.00;101290.44;4152845;28;20029;-80
2023/12/06 05:39:26;;;;;;;18.17;9.70;;;1.70;99.90;;;0.77;100.00;101305.09;4151474;28;20056;-80
2023/12/06 05:41:27;;;;;;;18.48;10.02;;;1.70;99.90;;;0.80;100.00;101309.28;4151590;28;20026;-81
2023/12/06 05:43:28;;;;;;;18.75;8.93;;;1.70;99.90;;;0.76;100.00;101303.41;4152536;28;20029;-80
2023/12/06 05:45:29;;;;;;;17.02;8.95;;;1.70;99.90;;;0.77;100.00;101299.91;4152833;28;20052;-81
2023/12/06 05:47:30;;;;;;;15.55;8.70;;;1.70;99.90;;;0.76;100.00;101305.16;4152813;28;20030;-81
2023/12/06 05:49:31;;;;;;;12.45;7.20;;;1.60;99.90;;;0.74;100.00;101296.63;4160375;28;20022;-80
2023/12/06 05:51:32;;;;;;;16.42;7.53;;;1.60;99.90;;;0.76;100.00;101299.97;4155502;28;20026;-80
2023/12/06 05:53:33;;;;;;;10.68;6.45;;;1.70;99.90;;;0.72;100.00;101286.31;4152123;28;20034;-80
2023/12/06 05:55:34;;;;;;;12.82;7.10;;;1.70;99.90;;;0.72;100.00;101288.09;4151462;28;20424;-81
2023/12/06 05:57:35;;;;;;;10.52;6.63;;;1.60;99.90;;;0.66;100.00;101288.41;4152527;28;20026;-80
2023/12/06 05:59:36;;;;;;;13.57;6.78;;;1.60;99.90;;;0.55;100.00;101275.97;4152563;28;20037;-80
2023/12/06 06:01:36;;;;;;;17.27;7.18;;;1.60;99.90;;;0.55;100.00;101294.13;4151190;28;20022;-80
2023/12/06 06:03:37;;;;;;;16.52;7.68;;;1.50;99.90;;;0.51;100.00;101295.19;4152547;28;20038;-81
2023/12/06 06:05:38;;;;;;;17.65;8.25;;;1.50;99.90;;;0.48;100.00;101288.41;4152534;28;20425;-80
2023/12/06 06:07:39;;;;;;;20.98;9.07;;;1.40;99.90;;;0.49;100.00;101294.44;4151322;28;20541;-80
2023/12/06 06:09:40;;;;;;;27.27;10.02;;;1.40;99.90;;;0.50;100.00;101302.19;4152114;28;20037;-80
2023/12/06 06:11:40;;;;;;;16.80;8.18;;;1.40;99.90;;;0.48;100.00;101295.34;4152387;28;20034;-80
2023/12/06 06:13:41;;;;;;;14.20;7.47;;;1.40;99.90;;;0.47;100.00;101307.53;4152433;28;20461;-80
2023/12/06 06:15:42;;;;;;;14.40;6.82;;;1.40;99.90;;;0.42;100.00;101303.47;4152251;28;20061;-80
2023/12/06 06:17:43;;;;;;;24.73;7.85;;;1.40;99.90;;;0.38;100.00;101308.00;4152326;28;20061;-80
2023/12/06 06:19:44;;;;;;;19.55;8.60;;;1.40;99.90;;;0.40;100.00;101315.69;4151034;28;20033;-80
2023/12/06 06:21:45;;;;;;;21.15;9.32;;;1.30;99.90;;;0.37;100.00;101321.03;4151346;28;20026;-80
2023/12/06 06:23:46;;;;;;;25.20;11.48;;;1.30;99.90;;;0.36;100.00;101325.38;4183815;28;20025;-80
2023/12/06 06:25:47;;;;;;;19.10;8.40;;;1.30;99.90;;;0.36;100.00;101317.59;4150977;28;20026;-81
2023/12/06 06:27:47;;;;;;;19.92;8.73;;;1.30;99.90;;;0.35;100.00;101318.53;4187922;28;20024;-81
2023/12/06 06:29:48;;;;;;;21.88;7.10;;;1.30;99.90;;;0.37;100.00;101326.22;4158754;28;20033;-81
2023/12/06 06:31:49;;;;;;;18.40;7.15;;;1.30;99.90;;;0.32;100.00;101323.88;4152255;28;20030;-81
2023/12/06 06:33:50;;;;;;;13.68;7.35;;;1.30;99.90;;;0.30;100.00;101322.28;4150866;28;20493;-80
2023/12/06 06:35:51;;;;;;;22.73;9.57;;;1.30;99.90;;;0.27;100.00;101320.63;4152343;28;20029;-80
2023/12/06 06:37:51;;;;;;;22.90;8.07;;;1.20;99.90;;;0.26;100.00;101307.75;4151099;28;20482;-80
2023/12/06 06:39:52;;;;;;;20.77;7.85;;;1.20;99.90;;;0.25;100.00;101311.25;4150833;28;20058;-81
2023/12/06 06:41:53;;;;;;;14.30;7.40;;;1.20;99.90;;;0.25;100.00;101326.81;4167172;28;20037;-81
2023/12/06 06:43:54;;;;;;;13.35;6.63;;;1.20;99.90;;;0.21;100.00;101320.94;4152324;28;20030;-80
2023/12/06 06:45:55;;;;;;;20.33;8.30;;;1.10;99.90;;;0.15;100.00;101310.06;4152218;28;20026;-80
2023/12/06 06:47:56;;;;;;;20.75;7.95;;;1.10;99.90;;;0.17;100.00;101310.81;4152131;28;20030;-80
2023/12/06 06:49:56;;;;;;;24.90;9.02;;;1.10;99.90;;;0.11;100.00;101306.78;4151991;28;20036;-80
2023/12/06 06:51:57;;;;;;;20.30;8.10;;;1.10;99.90;;;0.16;100.00;101314.31;4152720;28;20137;-80
2023/12/06 06:53:58;;;;;;;18.02;8.07;;;1.10;99.90;;;0.12;100.00;101310.22;4152113;28;20037;-81
2023/12/06 06:55:59;;;;;;;18.98;8.10;;;1.10;99.90;;;0.15;100.00;101321.25;4151016;28;20080;-80
2023/12/06 06:58:03;;;;;;;27.13;10.45;;;1.10;99.90;;;0.15;100.00;101312.66;4151957;28;20037;-80
2023/12/06 07:00:06;;;;;;;21.73;11.13;;;1.10;99.90;;;0.10;100.00;101301.63;4152144;28;20058;-81
2023/12/06 07:02:08;;;;;;;14.57;7.43;;;1.10;99.90;;;0.12;100.00;101302.44;4151120;28;20030;-80
2023/12/06 07:04:09;;;;;;;21.42;10.20;;;1.10;99.90;;;0.15;100.00;101316.06;4159015;28;20024;-80
2023/12/06 07:06:09;;;;;;;23.65;8.63;;;1.10;99.90;;;0.12;100.00;101323.19;4154084;28;20022;-80
2023/12/06 07:08:11;;;;;;;18.48;8.88;;;1.10;99.90;;;0.06;100.00;101320.88;4170300;28;20028;-81
2023/12/06 07:10:12;;;;;;;16.30;7.97;;;1.10;99.90;;;0.02;100.00;101316.75;4153940;28;20034;-80
2023/12/06 07:12:13;;;;;;;18.75;8.55;;;1.00;99.90;;;0.03;100.00;101316.66;4137669;28;20053;-80
2023/12/06 07:14:13;;;;;;;17.80;9.20;;;1.00;99.90;;;0.02;100.00;101312.41;4153814;28;20041;-80
2023/12/06 07:16:16;;;;;;;16.40;8.43;;;1.00;99.90;;;0.01;100.00;101318.50;4153772;28;20044;-80
2023/12/06 07:18:16;;;;;;;14.05;7.97;;;1.00;99.90;;;-0.02;100.00;101318.66;4186649;28;20036;-80
2023/12/06 07:20:17;;;;;;;19.20;8.30;;;1.00;99.90;;;-0.05;100.00;101316.19;4161077;28;20021;-80
2023/12/06 07:22:20;;;;;;;14.80;8.15;;;0.90;99.90;;;-0.11;100.00;101319.94;4163464;28;20040;-79
2023/12/06 07:24:21;;;;;;;12.63;7.55;;;0.90;99.90;;;-0.10;100.00;101315.59;4153653;28;20575;-78
2023/12/06 07:26:22;;;;;;;12.40;7.43;;;0.90;99.90;;;-0.11;100.00;101322.53;4153691;28;20034;-79
2023/12/06 07:28:23;;;;;;;14.60;7.40;;;0.90;99.90;;;-0.15;100.00;101318.41;4157349;28;20025;-80
2023/12/06 07:30:24;;;;;;;13.77;7.43;;;0.80;99.90;;;-0.13;100.00;101318.34;4158448;28;20036;-79
2023/12/06 07:32:25;;;;;;;14.35;7.88;;;0.80;99.90;;;-0.19;100.00;101313.44;4186583;28;20083;-78
2023/12/06 07:34:25;;;;;;;17.08;8.80;;;0.80;99.90;;;-0.15;100.00;101323.56;4153643;28;20060;-79
2023/12/06 07:36:26;;;;;;;18.20;8.20;;;0.80;99.90;;;-0.15;100.00;101317.59;4157289;28;20021;-79
2023/12/06 07:38:28;;;;;;;20.80;9.05;;;0.90;99.90;;;-0.12;100.00;101318.25;4153284;28;20037;-79
2023/12/06 07:40:29;;;;;;;16.10;10.45;;;0.80;99.90;;;-0.08;100.00;101318.94;4156063;28;20402;-79
2023/12/06 07:42:30;;;;;;;15.02;9.50;;;0.80;99.90;;;-0.05;100.00;101316.19;4153481;28;20029;-79
2023/12/06 07:44:31;;;;;;;16.27;8.52;;;0.90;99.90;;;0.02;100.00;101315.00;4153487;28;20146;-80
2023/12/06 07:46:32;;;;;;;15.10;8.05;;;0.90;99.90;;;0.04;100.00;101309.72;4154596;28;20030;-79
2023/12/06 07:48:35;;;;;;;12.30;7.53;;;1.00;99.90;;;0.03;100.00;101303.69;4153470;28;20018;-79
2023/12/06 07:50:36;;;;;;;13.85;7.75;;;1.00;99.90;;;-0.03;100.00;101304.84;4153742;28;20026;-79
2023/12/06 07:52:37;;;;;;;18.05;9.55;;;1.00;99.90;;;-0.01;100.00;101310.81;4153711;28;20026;-79
2023/12/06 07:54:38;;;;;;;18.00;10.30;;;1.00;99.90;;;-0.02;100.00;101309.13;4153073;28;20033;-79
2023/12/06 07:56:40;;;;;;;23.00;11.25;;;1.00;99.90;;;0.03;100.00;101314.06;4153224;28;20038;-79
2023/12/06 07:58:41;;;;;;;17.55;8.75;;;1.00;99.90;;;0.04;100.00;101317.50;4154478;28;20113;-79
2023/12/06 08:00:42;;;;;;;13.65;8.05;;;1.00;99.90;;;-0.01;100.00;101318.59;4159973;28;20503;-80
2023/12/06 08:02:42;;;;;;;15.63;7.78;;;1.00;99.90;;;-0.04;100.00;101325.66;4157560;28;20037;-79
2023/12/06 08:04:43;;;;;;;13.95;8.30;;;0.90;99.90;;;-0.04;100.00;101331.69;4152953;28;20614;-79
2023/12/06 08:06:44;;;;;;;20.85;9.43;;;1.00;99.90;;;0.02;100.00;101337.50;4185826;28;20055;-79
2023/12/06 08:08:45;;;;;;;24.60;11.25;;;1.00;99.90;;;-0.01;100.00;101326.38;4154058;28;20018;-79
2023/12/06 08:10:46;;;;;;;16.02;8.27;;;1.00;99.90;;;0.04;100.00;101333.91;4153023;28;20030;-79
2023/12/06 08:12:47;;;;;;;18.70;9.43;;;1.00;99.90;;;0.09;100.00;101339.69;4152886;28;20026;-79
2023/12/06 08:14:48;;;;;;;21.15;11.20;;;1.00;99.90;;;0.11;100.00;101340.50;4185772;28;20032;-79
2023/12/06 08:16:49;;;;;;;17.52;10.02;;;1.10;99.90;;;0.15;100.00;101341.19;4168561;28;20056;-79
2023/12/06 08:18:49;;;;;;;20.25;12.00;;;1.10;99.90;;;0.18;100.00;101338.44;4161294;28;20048;-79
2023/12/06 08:20:50;;;;;;;24.25;14.98;;;1.10;99.90;;;0.24;100.00;101335.53;4154382;28;20449;-79
2023/12/06 08:22:51;;;;;;;28.80;16.25;;;1.20;99.90;;;0.33;100.00;101345.47;4154040;28;20036;-79
2023/12/06 08:24:56;;;;;;;25.38;14.68;;;1.20;99.90;;;0.35;100.00;101339.28;4153902;28;20025;-79